Time;durP1;ratioP1;P1;durP2;ratioP2;P2;SDS_P1;SDS_P2;PMS_P1;PMS_P2;Temp;Humidity;BMP_temperature;BMP_pressure;BME280_temperature;BME280_humidity;BME280_pressure;Samples;Min_cycle;Max_cycle;Signal;HPM_P1;HPM_P2
2022/01/02 00:00:00;;;;;;;16.98;8.93;;;11.60;99.90;;;;;;5073625;28;20517;-68
2022/01/02 00:02:29;;;;;;;17.02;8.23;;;11.40;99.90;;;;;;5075039;28;20193;-69
2022/01/02 00:05:02;;;;;;;14.55;8.35;;;12.10;99.90;;;;;;5073714;28;20063;-69
2022/01/02 00:07:30;;;;;;;17.65;8.73;;;11.80;99.90;;;;;;5074478;28;20076;-70
2022/01/02 00:10:01;;;;;;;19.05;8.88;;;11.40;99.90;;;;;;5073166;28;20472;-69
2022/01/02 00:12:31;;;;;;;11.63;8.07;;;11.30;99.90;;;;;;5074635;28;20123;-68
2022/01/02 00:14:58;;;;;;;14.15;8.88;;;12.50;99.90;;;;;;5074400;28;20041;-68
2022/01/02 00:17:24;;;;;;;16.73;8.73;;;11.30;99.90;;;;;;5074428;28;20049;-68
2022/01/02 00:19:54;;;;;;;;;;;11.60;99.90;;;;;;5074125;28;20051;-69
2022/01/02 00:22:26;;;;;;;20.52;9.23;;;11.80;99.90;;;;;;5107401;28;19943;-69
2022/01/02 00:24:53;;;;;;;17.45;8.30;;;11.70;99.90;;;;;;5073641;28;20048;-68
2022/01/02 00:27:19;;;;;;;14.77;7.97;;;11.40;99.90;;;;;;5073487;28;20389;-68
2022/01/02 00:29:45;;;;;;;17.92;8.57;;;11.20;99.90;;;;;;5073041;28;20040;-68
2022/01/02 00:32:12;;;;;;;19.50;9.23;;;11.60;99.90;;;;;;5073972;28;20048;-69
2022/01/02 00:34:38;;;;;;;19.05;8.75;;;11.30;99.90;;;;;;5056400;28;20509;-69
2022/01/02 00:37:05;;;;;;;16.73;8.60;;;11.60;99.90;;;;;;5073087;28;20053;-68
2022/01/02 00:39:31;;;;;;;17.02;8.85;;;11.40;99.90;;;;;;5055858;28;20080;-69
2022/01/02 00:42:04;;;;;;;16.65;8.68;;;11.20;99.90;;;;;;5073580;28;20372;-69
2022/01/02 00:44:48;;;;;;;22.40;8.90;;;12.00;99.90;;;;;;5073025;28;20443;-69
2022/01/02 00:47:30;;;;;;;18.42;8.93;;;11.40;99.90;;;;;;5073759;28;20045;-69
2022/01/02 00:50:01;;;;;;;13.27;8.02;;;11.40;99.90;;;;;;5074506;28;20101;-68
2022/01/02 00:52:28;;;;;;;15.68;8.25;;;11.40;99.90;;;;;;5074493;28;20049;-69
2022/01/02 00:54:56;;;;;;;23.02;9.30;;;11.50;99.90;;;;;;5072541;28;20056;-69
2022/01/02 00:57:30;;;;;;;17.58;8.98;;;11.30;99.90;;;;;;5072816;28;20125;-68
2022/01/02 01:00:14;;;;;;;19.02;8.88;;;11.40;99.90;;;;;;5073651;28;20055;-69
2022/01/02 01:02:47;;;;;;;17.55;8.70;;;11.30;99.90;;;;;;5073767;28;20123;-68
2022/01/02 01:05:20;;;;;;;21.95;8.40;;;11.40;99.90;;;;;;5072585;28;20132;-69
2022/01/02 01:07:54;;;;;;;17.95;8.90;;;11.20;99.90;;;;;;5072535;28;20044;-69
2022/01/02 01:10:21;;;;;;;16.90;8.88;;;11.30;99.90;;;;;;5073670;28;20153;-69
2022/01/02 01:12:56;;;;;;;14.80;8.85;;;10.90;99.90;;;;;;5055890;28;20048;-69
2022/01/02 01:15:24;;;;;;;22.50;9.43;;;11.40;99.90;;;;;;5074027;28;20472;-69
2022/01/02 01:17:55;;;;;;;17.65;8.60;;;11.30;99.90;;;;;;5072624;28;20127;-69
2022/01/02 01:20:22;;;;;;;19.23;9.05;;;11.30;99.90;;;;;;5073516;28;20105;-68
2022/01/02 01:22:49;;;;;;;17.02;9.43;;;11.90;99.90;;;;;;5074059;28;20052;-69
2022/01/02 01:25:17;;;;;;;18.80;9.15;;;11.10;99.90;;;;;;5055703;28;20044;-69
2022/01/02 01:27:48;;;;;;;21.17;9.73;;;12.10;99.90;;;;;;5055800;28;20044;-69
2022/01/02 01:30:16;;;;;;;18.00;10.55;;;10.80;99.90;;;;;;5073465;28;20048;-69
2022/01/02 01:32:42;;;;;;;23.38;9.20;;;11.50;99.90;;;;;;5072347;28;20420;-69
2022/01/02 01:35:09;;;;;;;24.85;9.93;;;11.20;99.90;;;;;;5055475;28;20040;-69
2022/01/02 01:37:36;;;;;;;24.50;10.13;;;11.40;99.90;;;;;;5074505;28;20416;-69
2022/01/02 01:40:04;;;;;;;18.80;9.85;;;11.40;99.90;;;;;;5071920;28;20063;-70
2022/01/02 01:42:42;;;;;;;22.20;9.65;;;11.40;99.90;;;;;;5073575;28;20088;-69
2022/01/02 01:47:50;;;;;;;21.55;9.68;;;11.30;99.90;;;;;;5057132;28;20067;-70
2022/01/02 01:50:17;;;;;;;20.90;9.90;;;11.40;99.90;;;;;;5072228;28;20507;-69
2022/01/02 01:52:43;;;;;;;19.08;10.52;;;11.20;99.90;;;;;;5073177;28;20044;-70
2022/01/02 01:55:09;;;;;;;22.65;10.75;;;11.50;99.90;;;;;;5072694;28;20376;-69
2022/01/02 01:57:37;;;;;;;22.70;11.32;;;12.40;99.90;;;;;;5055509;28;20041;-69
2022/01/02 02:00:15;;;;;;;22.95;10.82;;;11.10;99.90;;;;;;5056501;28;20059;-68
2022/01/02 02:02:42;;;;;;;22.33;10.50;;;11.20;99.90;;;;;;5072987;28;20052;-69
2022/01/02 02:05:09;;;;;;;23.38;11.23;;;11.50;99.90;;;;;;5071895;28;20052;-68
2022/01/02 02:07:40;;;;;;;26.63;11.30;;;11.10;99.90;;;;;;5039173;28;20059;-69
2022/01/02 02:10:15;;;;;;;25.67;11.32;;;11.10;99.90;;;;;;5072880;28;20097;-69
2022/01/02 02:12:44;;;;;;;24.65;11.85;;;11.30;99.90;;;;;;5072299;28;20084;-69
2022/01/02 02:15:12;;;;;;;23.65;11.07;;;11.10;99.90;;;;;;5056184;28;20048;-70
2022/01/02 02:17:38;;;;;;;25.63;11.02;;;11.00;99.90;;;;;;5072989;28;20105;-69
2022/01/02 02:20:19;;;;;;;24.80;11.38;;;11.40;99.90;;;;;;5072927;28;20473;-68
2022/01/02 02:22:48;;;;;;;22.27;11.80;;;11.40;99.90;;;;;;5106054;28;20052;-71
2022/01/02 02:25:16;;;;;;;22.75;12.10;;;11.30;99.90;;;;;;5072047;28;20056;-70
2022/01/02 02:27:53;;;;;;;24.58;12.85;;;11.20;99.90;;;;;;5071699;28;20049;-69
2022/01/02 02:30:19;;;;;;;28.52;13.07;;;11.10;99.90;;;;;;5055068;28;20049;-68
2022/01/02 02:32:45;;;;;;;28.13;13.63;;;12.20;99.90;;;;;;5055733;28;20048;-70
2022/01/02 02:35:12;;;;;;;26.33;13.55;;;11.50;99.90;;;;;;5075370;28;20134;-69
2022/01/02 02:37:42;;;;;;;26.52;13.95;;;11.20;99.90;;;;;;5075189;28;20106;-68
2022/01/02 02:40:09;;;;;;;28.13;14.18;;;11.10;99.90;;;;;;5075728;28;20067;-69
2022/01/02 02:51:05;;;;;;;35.60;16.88;;;11.80;99.90;;;;;;5076180;28;20515;-69
2022/01/02 02:53:33;;;;;;;35.63;16.83;;;11.60;99.90;;;;;;5058290;28;20040;-69
2022/01/02 02:55:59;;;;;;;33.25;17.90;;;11.10;99.90;;;;;;5075993;28;20037;-69
2022/01/02 03:01:00;;;;;;;39.78;18.23;;;10.80;99.90;;;;;;5075944;28;20045;-67
2022/01/02 03:03:26;;;;;;;47.45;20.02;;;11.00;99.90;;;;;;5075890;28;20183;-67
2022/01/02 03:05:52;;;;;;;41.33;20.52;;;11.10;99.90;;;;;;5075850;28;20127;-68
2022/01/02 03:08:18;;;;;;;50.97;21.80;;;11.20;99.90;;;;;;5075828;28;20045;-67
2022/01/02 03:10:44;;;;;;;44.30;20.73;;;11.90;99.90;;;;;;5075752;28;20269;-66
2022/01/02 03:13:10;;;;;;;47.28;20.67;;;12.20;99.90;;;;;;5075749;28;20048;-67
2022/01/02 03:15:35;;;;;;;42.05;20.25;;;10.90;99.90;;;;;;5108402;28;20469;-67
2022/01/02 03:18:01;;;;;;;41.50;20.40;;;11.30;99.90;;;;;;5076285;28;20045;-69
2022/01/02 03:20:27;;;;;;;50.25;22.73;;;10.80;99.90;;;;;;5074471;28;20044;-67
2022/01/02 03:22:52;;;;;;;47.50;20.83;;;11.40;99.90;;;;;;5108416;28;20129;-68
2022/01/02 03:25:18;;;;;;;42.45;21.17;;;11.40;99.90;;;;;;5108717;28;20072;-67
2022/01/02 03:27:44;;;;;;;45.10;21.67;;;11.00;99.90;;;;;;5057810;28;20041;-67
2022/01/02 03:30:11;;;;;;;;;;;11.50;99.90;;;;;;5074605;28;20047;-67
2022/01/02 03:32:37;;;;;;;38.05;20.08;;;10.90;99.90;;;;;;5075870;28;19975;-67
2022/01/02 03:35:03;;;;;;;;;;;11.30;99.90;;;;;;5075625;28;20041;-67
2022/01/02 03:37:29;;;;;;;43.08;21.27;;;10.90;99.90;;;;;;5076350;28;19927;-67
2022/01/02 03:39:57;;;;;;;51.03;21.27;;;10.70;99.90;;;;;;5076170;28;20453;-67
2022/01/02 03:42:23;;;;;;;44.70;21.15;;;10.80;99.90;;;;;;5107697;28;20044;-66
2022/01/02 03:44:49;;;;;;;48.67;22.77;;;10.80;99.90;;;;;;5106841;28;20127;-66
2022/01/02 03:47:15;;;;;;;48.28;22.98;;;11.00;99.90;;;;;;5073887;28;20473;-66
2022/01/02 03:49:40;;;;;;;49.25;22.45;;;11.00;99.90;;;;;;5075045;28;20102;-66
2022/01/02 03:52:06;;;;;;;44.70;21.75;;;11.00;99.90;;;;;;5108664;28;20053;-66
2022/01/02 03:54:32;;;;;;;46.92;22.67;;;10.80;99.90;;;;;;5074798;28;20041;-67
2022/01/02 03:56:57;;;;;;;43.65;23.55;;;10.60;99.90;;;;;;5075339;28;20048;-66
2022/01/02 03:59:23;;;;;;;46.70;23.48;;;10.60;99.90;;;;;;5075094;28;20186;-66
2022/01/02 04:01:49;;;;;;;49.08;23.40;;;10.60;99.90;;;;;;5074776;28;20468;-66
2022/01/02 04:04:16;;;;;;;49.63;23.83;;;10.90;99.90;;;;;;5074711;28;20570;-66
2022/01/02 04:06:42;;;;;;;49.30;25.90;;;10.60;99.90;;;;;;5074599;28;20048;-66
2022/01/02 04:09:07;;;;;;;54.13;26.23;;;10.60;99.90;;;;;;5075011;28;20052;-66
2022/01/02 04:11:33;;;;;;;57.15;27.13;;;11.00;99.90;;;;;;5074853;28;20045;-66
2022/01/02 04:13:59;;;;;;;70.00;27.73;;;11.00;99.90;;;;;;5107409;28;20041;-67
2022/01/02 04:16:24;;;;;;;56.90;27.25;;;11.60;99.90;;;;;;5074906;28;20036;-66
2022/01/02 04:18:50;;;;;;;64.55;28.02;;;10.60;99.90;;;;;;5107598;28;20452;-66
2022/01/02 04:21:16;;;;;;;61.60;27.02;;;10.70;99.90;;;;;;5074352;28;20040;-66
2022/01/02 04:23:42;;;;;;;59.90;27.23;;;11.00;99.90;;;;;;5074794;28;20132;-66
2022/01/02 04:26:08;;;;;;;57.58;27.40;;;11.20;99.90;;;;;;5107972;28;20079;-66
2022/01/02 04:28:34;;;;;;;54.67;24.98;;;10.80;99.90;;;;;;5074191;28;20102;-66
2022/01/02 04:31:00;;;;;;;46.78;23.60;;;10.70;99.90;;;;;;5073996;28;20059;-66
2022/01/02 04:33:25;;;;;;;59.78;25.77;;;11.50;99.90;;;;;;5074058;28;20401;-66
2022/01/02 04:35:51;;;;;;;53.65;23.92;;;11.50;99.90;;;;;;5074091;28;20040;-66
2022/01/02 04:38:17;;;;;;;52.35;23.23;;;12.40;99.90;;;;;;5073924;28;20040;-66
2022/01/02 04:40:43;;;;;;;48.72;22.13;;;10.90;99.90;;;;;;5074029;28;20162;-66
2022/01/02 04:43:09;;;;;;;49.03;21.63;;;10.90;99.90;;;;;;5074036;28;20090;-66
2022/01/02 04:45:35;;;;;;;37.88;19.65;;;10.80;99.90;;;;;;5074159;28;20040;-66
2022/01/02 04:48:01;;;;;;;39.50;20.05;;;10.60;99.90;;;;;;5074026;28;20470;-66
2022/01/02 04:50:26;;;;;;;34.85;17.58;;;10.70;99.90;;;;;;5073898;28;20049;-66
2022/01/02 04:52:52;;;;;;;33.40;17.55;;;11.40;99.90;;;;;;5073773;28;20040;-66
2022/01/02 04:55:18;;;;;;;38.60;18.17;;;12.50;99.90;;;;;;5073487;28;20041;-67
2022/01/02 04:57:44;;;;;;;37.55;18.90;;;11.20;99.90;;;;;;5106750;28;20056;-67
2022/01/02 05:00:11;;;;;;;38.88;17.48;;;11.50;99.90;;;;;;5073719;28;20044;-67
2022/01/02 05:02:36;;;;;;;44.78;20.65;;;11.10;99.90;;;;;;5073685;28;20049;-67
2022/01/02 05:05:03;;;;;;;36.58;20.58;;;10.90;99.90;;;;;;5072168;28;20082;-66
2022/01/02 05:07:29;;;;;;;49.83;20.90;;;10.90;99.90;;;;;;5073643;28;20076;-67
2022/01/02 05:09:55;;;;;;;46.67;20.80;;;12.30;99.90;;;;;;5072449;28;20080;-66
2022/01/02 05:12:20;;;;;;;;;;;11.00;99.90;;;;;;5074582;28;20083;-66
2022/01/02 05:14:46;;;;;;;45.40;22.23;;;11.10;99.90;;;;;;5073116;28;20399;-66
2022/01/02 05:17:12;;;;;;;44.28;22.25;;;10.60;99.90;;;;;;5073193;28;20044;-66
2022/01/02 05:19:38;;;;;;;49.38;21.70;;;10.80;99.90;;;;;;5073235;28;20055;-66
2022/01/02 05:22:03;;;;;;;51.53;22.67;;;11.50;99.90;;;;;;5073493;28;20055;-66
2022/01/02 05:24:29;;;;;;;50.13;22.25;;;12.10;99.90;;;;;;5073936;28;20052;-66
2022/01/02 05:26:55;;;;;;;47.30;22.35;;;11.10;99.90;;;;;;5073385;28;20047;-65
2022/01/02 05:29:22;;;;;;;55.50;22.88;;;10.90;99.90;;;;;;5073415;28;20045;-66
2022/01/02 05:31:48;;;;;;;53.38;22.38;;;11.30;99.90;;;;;;5073384;28;20052;-66
2022/01/02 05:34:13;;;;;;;60.92;24.00;;;11.10;99.90;;;;;;5073376;28;20052;-67
2022/01/02 05:36:39;;;;;;;57.92;24.75;;;10.90;99.90;;;;;;5073309;28;20041;-66
2022/01/02 05:39:05;;;;;;;60.92;24.20;;;11.10;99.90;;;;;;5072403;28;20056;-66
2022/01/02 05:41:33;;;;;;;61.25;25.15;;;10.80;99.90;;;;;;5073852;28;20126;-66
2022/01/02 05:43:58;;;;;;;59.20;25.55;;;11.00;99.90;;;;;;5073249;28;20059;-66
2022/01/02 05:46:24;;;;;;;63.63;25.75;;;11.00;99.90;;;;;;5073259;28;20045;-66
2022/01/02 05:48:50;;;;;;;60.58;26.15;;;11.00;99.90;;;;;;5074009;28;20045;-66
2022/01/02 05:51:16;;;;;;;76.53;26.70;;;10.80;99.90;;;;;;5073206;28;20465;-66
2022/01/02 05:53:42;;;;;;;;;;;12.20;99.90;;;;;;5073601;28;20094;-65
2022/01/02 05:56:08;;;;;;;75.30;23.45;;;11.30;99.90;;;;;;5073111;28;19928;-65
2022/01/02 05:58:34;;;;;;;62.22;21.95;;;12.10;99.90;;;;;;5073399;28;20093;-66
2022/01/02 06:00:59;;;;;;;64.13;23.08;;;11.20;99.90;;;;;;5073186;28;20087;-66
2022/01/02 06:03:25;;;;;;;59.38;22.50;;;10.80;99.90;;;;;;5073387;28;20052;-65
2022/01/02 06:05:51;;;;;;;57.38;22.63;;;11.20;99.90;;;;;;5073363;28;20420;-65
2022/01/02 06:08:17;;;;;;;48.05;21.35;;;11.10;99.90;;;;;;5075489;28;20040;-65
2022/01/02 06:10:42;;;;;;;56.78;21.58;;;11.10;99.90;;;;;;5076880;28;20051;-66
2022/01/02 06:13:08;;;;;;;46.05;19.27;;;10.90;99.90;;;;;;5109833;28;20052;-66
2022/01/02 06:15:34;;;;;;;54.33;19.08;;;12.20;99.90;;;;;;5076693;28;20067;-66
2022/01/02 06:18:00;;;;;;;58.90;20.23;;;11.00;99.90;;;;;;5076800;28;20041;-66
2022/01/02 06:20:26;;;;;;;56.50;20.08;;;11.00;99.90;;;;;;5077225;28;20489;-66
2022/01/02 06:22:54;;;;;;;45.75;18.15;;;11.10;99.90;;;;;;5077202;28;20044;-66
2022/01/02 06:25:20;;;;;;;52.65;20.60;;;11.10;99.90;;;;;;5076593;28;20123;-67
2022/01/02 06:27:46;;;;;;;45.92;18.50;;;11.20;99.90;;;;;;5076562;28;20094;-66
2022/01/02 06:30:12;;;;;;;45.38;19.77;;;11.10;99.90;;;;;;5076532;28;20392;-66
2022/01/02 06:32:38;;;;;;;57.05;20.33;;;10.90;99.90;;;;;;5058862;28;20070;-66
2022/01/02 06:35:04;;;;;;;42.20;19.50;;;11.30;99.90;;;;;;5076606;28;20468;-66
2022/01/02 06:37:29;;;;;;;;;;;11.20;99.90;;;;;;5076841;28;20052;-66
2022/01/02 06:39:55;;;;;;;48.70;19.50;;;11.00;99.90;;;;;;5074755;28;20265;-66
2022/01/02 06:42:21;;;;;;;39.50;18.33;;;11.20;99.90;;;;;;5076388;28;20049;-67
2022/01/02 06:44:47;;;;;;;35.17;17.40;;;11.30;99.90;;;;;;5076331;28;20514;-66
2022/01/02 06:47:12;;;;;;;36.95;17.35;;;11.10;99.90;;;;;;5076268;28;20040;-66
2022/01/02 06:49:38;;;;;;;39.75;15.77;;;11.40;99.90;;;;;;5076477;28;20097;-66
2022/01/02 06:52:04;;;;;;;32.45;15.68;;;11.00;99.90;;;;;;5075159;28;20056;-65
2022/01/02 06:54:31;;;;;;;43.10;17.00;;;11.20;99.90;;;;;;5074886;28;20037;-66
2022/01/02 06:56:57;;;;;;;35.90;14.98;;;11.30;99.90;;;;;;5075977;28;20044;-66
2022/01/02 06:59:23;;;;;;;36.92;16.13;;;10.90;99.90;;;;;;5075976;28;20102;-67
2022/01/02 07:01:48;;;;;;;37.13;15.75;;;11.20;99.90;;;;;;5076502;28;20040;-66
2022/01/02 07:04:14;;;;;;;33.55;12.85;;;11.30;99.90;;;;;;5075917;28;20044;-66
2022/01/02 07:06:40;;;;;;;41.08;14.00;;;11.20;99.90;;;;;;5074791;28;20373;-66
2022/01/02 07:09:05;;;;;;;37.35;13.32;;;12.10;99.90;;;;;;5075835;28;20048;-66
2022/01/02 07:11:31;;;;;;;32.47;13.18;;;11.30;99.90;;;;;;5075749;28;20116;-66
2022/01/02 07:13:57;;;;;;;26.92;10.02;;;11.00;99.90;;;;;;5075747;28;20084;-67
2022/01/02 07:16:22;;;;;;;22.23;9.50;;;12.30;99.90;;;;;;5108306;28;20098;-69
2022/01/02 07:18:48;;;;;;;24.85;9.60;;;11.40;99.90;;;;;;5041173;28;20136;-66
2022/01/02 07:21:17;;;;;;;30.38;9.88;;;11.30;99.90;;;;;;5075619;28;20554;-67
2022/01/02 07:23:43;;;;;;;28.92;9.32;;;11.50;99.90;;;;;;5075550;28;20052;-68
2022/01/02 07:26:09;;;;;;;21.73;8.35;;;12.10;99.90;;;;;;5074465;28;20040;-67
2022/01/02 07:28:35;;;;;;;25.42;8.85;;;11.90;99.90;;;;;;5075433;28;20182;-66
2022/01/02 07:31:01;;;;;;;30.50;8.57;;;11.50;99.90;;;;;;5075650;28;20041;-67
2022/01/02 07:33:26;;;;;;;;;;;11.80;99.90;;;;;;5075857;28;20048;-67
2022/01/02 07:35:52;;;;;;;22.83;8.15;;;11.80;99.90;;;;;;5075329;28;20302;-66
2022/01/02 07:38:18;;;;;;;22.35;8.13;;;11.40;99.90;;;;;;5075398;28;20075;-66
2022/01/02 07:40:44;;;;;;;25.90;8.80;;;11.90;99.90;;;;;;5075205;28;20408;-66
2022/01/02 07:43:10;;;;;;;18.45;8.95;;;11.70;99.90;;;;;;5074118;28;20055;-66
2022/01/02 07:45:35;;;;;;;30.17;9.25;;;11.40;99.90;;;;;;5075626;28;20040;-67
2022/01/02 07:48:01;;;;;;;26.42;10.00;;;11.40;99.90;;;;;;5074766;28;20497;-66
2022/01/02 07:50:26;;;;;;;27.63;10.30;;;11.20;99.90;;;;;;5074956;28;20052;-67
2022/01/02 07:52:52;;;;;;;23.40;9.65;;;11.70;99.90;;;;;;5074923;28;20044;-67
2022/01/02 07:55:19;;;;;;;23.83;9.15;;;11.30;99.90;;;;;;5075378;28;20044;-66
2022/01/02 07:57:45;;;;;;;21.75;8.77;;;13.00;99.90;;;;;;5075139;28;20064;-66
2022/01/02 08:00:11;;;;;;;23.17;8.00;;;11.60;99.90;;;;;;5074342;28;20049;-69
2022/01/02 08:02:37;;;;;;;26.15;8.35;;;11.30;99.90;;;;;;5073449;28;20083;-67
2022/01/02 08:05:03;;;;;;;17.88;7.18;;;11.70;99.90;;;;;;5074462;28;20075;-68
2022/01/02 08:07:28;;;;;;;19.77;6.82;;;11.60;99.90;;;;;;5074358;28;20060;-67
2022/01/02 08:09:54;;;;;;;18.20;6.03;;;11.30;99.90;;;;;;5074387;28;20040;-71
2022/01/02 08:12:19;;;;;;;19.70;6.50;;;11.70;99.90;;;;;;5073321;28;20048;-68
2022/01/02 08:14:45;;;;;;;17.88;7.07;;;11.60;99.90;;;;;;5074201;28;20044;-74
2022/01/02 08:17:11;;;;;;;20.33;6.68;;;11.60;99.90;;;;;;5073076;28;20127;-67
2022/01/02 08:19:36;;;;;;;16.75;6.90;;;11.60;99.90;;;;;;5074205;28;20044;-68
2022/01/02 08:22:02;;;;;;;19.40;8.38;;;11.20;99.90;;;;;;5074005;28;20048;-67
2022/01/02 08:24:28;;;;;;;11.40;6.20;;;11.30;99.90;;;;;;5072907;28;20056;-73
2022/01/02 08:26:54;;;;;;;15.93;6.68;;;11.20;99.90;;;;;;5074292;28;20045;-71
2022/01/02 08:29:19;;;;;;;13.98;6.10;;;11.10;99.90;;;;;;5073985;28;20052;-67
2022/01/02 08:31:45;;;;;;;12.77;6.38;;;11.10;99.90;;;;;;5073849;28;20429;-68
2022/01/02 08:34:11;;;;;;;12.45;6.13;;;11.30;99.90;;;;;;5072834;28;20193;-68
2022/01/02 08:36:36;;;;;;;21.27;7.40;;;11.20;99.90;;;;;;5073722;28;20047;-69
2022/01/02 08:39:03;;;;;;;19.15;9.10;;;11.10;99.90;;;;;;5072178;28;20063;-68
2022/01/02 08:41:28;;;;;;;20.33;8.90;;;11.20;99.90;;;;;;5072750;28;20084;-70
2022/01/02 08:43:54;;;;;;;19.50;9.20;;;11.10;99.90;;;;;;5072745;28;20079;-68
2022/01/02 08:46:20;;;;;;;17.40;9.15;;;11.20;99.90;;;;;;5072736;28;20033;-67
2022/01/02 08:48:45;;;;;;;19.65;10.52;;;11.20;99.90;;;;;;5073898;28;20052;-68
2022/01/02 08:51:12;;;;;;;25.80;11.13;;;11.40;99.90;;;;;;5107584;28;20139;-69
2022/01/02 08:53:38;;;;;;;;;;;11.10;99.90;;;;;;5073092;28;20054;-67
2022/01/02 08:56:04;;;;;;;18.65;10.82;;;11.20;99.90;;;;;;5072597;28;20019;-67
2022/01/02 08:58:30;;;;;;;20.02;11.25;;;11.20;99.90;;;;;;5072736;28;20441;-66
2022/01/02 09:01:00;;;;;;;21.17;10.43;;;10.90;99.90;;;;;;5073747;28;20508;-66
2022/01/02 09:03:26;;;;;;;21.25;10.07;;;11.30;99.90;;;;;;5073706;28;20044;-67
2022/01/02 09:05:52;;;;;;;20.40;9.75;;;11.30;99.90;;;;;;5073955;28;20048;-67
2022/01/02 09:08:17;;;;;;;17.20;9.80;;;10.80;99.90;;;;;;5072573;28;20411;-67
2022/01/02 09:10:44;;;;;;;20.52;10.35;;;11.00;99.90;;;;;;5072477;28;20127;-67
2022/01/02 09:13:09;;;;;;;19.42;10.23;;;11.50;99.90;;;;;;5073533;28;20138;-67
2022/01/02 09:15:35;;;;;;;16.30;10.02;;;10.80;99.90;;;;;;5106312;28;20041;-67
2022/01/02 09:18:01;;;;;;;16.98;9.98;;;10.90;99.90;;;;;;5073818;28;20166;-66
2022/01/02 09:20:27;;;;;;;15.88;9.50;;;10.90;99.90;;;;;;5072350;28;20062;-67
2022/01/02 09:22:54;;;;;;;19.40;10.55;;;11.20;99.90;;;;;;5073258;28;20424;-67
2022/01/02 09:25:19;;;;;;;18.75;10.27;;;10.70;99.90;;;;;;5073481;28;20049;-67
2022/01/02 09:27:45;;;;;;;19.55;10.85;;;11.20;99.90;;;;;;5072247;28;20048;-68
2022/01/02 09:30:12;;;;;;;17.40;10.68;;;10.80;99.90;;;;;;5073360;28;20044;-68
2022/01/02 09:32:38;;;;;;;20.90;11.63;;;10.60;99.90;;;;;;5071934;28;20443;-70
2022/01/02 09:35:05;;;;;;;16.25;11.15;;;10.70;99.90;;;;;;5072220;28;20131;-68
2022/01/02 09:37:33;;;;;;;16.25;11.95;;;11.10;99.90;;;;;;5073582;28;20071;-68
2022/01/02 09:39:59;;;;;;;21.13;10.98;;;10.90;99.90;;;;;;5073552;28;20060;-69
2022/01/02 09:42:25;;;;;;;16.77;12.27;;;10.70;99.90;;;;;;5072342;28;20139;-67
2022/01/02 09:44:51;;;;;;;15.23;12.18;;;10.90;99.90;;;;;;5077676;28;20064;-68
2022/01/02 09:47:21;;;;;;;23.02;12.52;;;10.80;99.90;;;;;;5077325;28;20086;-67
2022/01/02 09:49:47;;;;;;;16.33;11.30;;;10.90;99.90;;;;;;5077117;28;20044;-69
2022/01/02 09:52:14;;;;;;;;;;;11.10;99.90;;;;;;5077777;28;20120;-68
2022/01/02 09:54:39;;;;;;;18.33;11.20;;;10.90;99.90;;;;;;5076131;28;19920;-67
2022/01/02 09:57:05;;;;;;;20.77;12.20;;;11.00;99.90;;;;;;5109843;28;20051;-67
2022/01/02 09:59:31;;;;;;;19.83;12.23;;;11.20;99.90;;;;;;5077560;28;20130;-67
2022/01/02 10:01:59;;;;;;;19.58;12.68;;;10.80;99.90;;;;;;5075881;28;20103;-66
2022/01/02 10:04:59;;;;;;;16.92;12.15;;;10.90;99.90;;;;;;5077037;28;20052;-68
2022/01/02 10:07:29;;;;;;;21.52;12.73;;;10.80;99.90;;;;;;5077550;28;20392;-66
2022/01/02 10:09:55;;;;;;;21.52;13.35;;;10.90;99.90;;;;;;5076923;28;20045;-64
2022/01/02 10:12:31;;;;;;;;;;;11.50;99.90;;;;;;5076077;28;20439;-65
2022/01/02 10:15:20;;;;;;;20.63;13.68;;;11.30;99.90;;;;;;5076757;28;19966;-64
2022/01/02 10:17:59;;;;;;;21.58;14.85;;;11.20;99.90;;;;;;5076855;28;20052;-65
2022/01/02 10:20:33;;;;;;;25.20;15.13;;;11.00;99.90;;;;;;5076749;28;20181;-64
2022/01/02 10:23:09;;;;;;;25.00;15.02;;;11.10;99.90;;;;;;5075893;28;20056;-66
2022/01/02 10:25:40;;;;;;;23.23;14.10;;;10.90;99.90;;;;;;5077186;28;20044;-65
2022/01/02 10:28:41;;;;;;;23.80;15.88;;;10.90;99.90;;;;;;5076590;28;20041;-65
2022/01/02 10:31:15;;;;;;;25.58;14.73;;;10.70;99.90;;;;;;5075321;28;20040;-65
2022/01/02 10:33:57;;;;;;;25.20;13.93;;;10.70;99.90;;;;;;5076495;28;20094;-65
2022/01/02 10:36:40;;;;;;;26.63;15.05;;;11.20;99.90;;;;;;5075162;28;20098;-65
2022/01/02 10:39:13;;;;;;;21.35;12.98;;;11.00;99.90;;;;;;5076473;28;20052;-68
2022/01/02 10:41:51;;;;;;;24.77;15.23;;;10.80;99.90;;;;;;5076327;28;20068;-65
2022/01/02 10:44:33;;;;;;;27.02;12.55;;;10.80;99.90;;;;;;5075097;28;20473;-65
2022/01/02 10:47:16;;;;;;;25.10;12.75;;;11.20;99.90;;;;;;5076737;28;20372;-65
2022/01/02 10:49:55;;;;;;;21.25;12.68;;;11.10;99.90;;;;;;5075163;28;20049;-67
2022/01/02 10:52:30;;;;;;;24.75;11.75;;;10.80;99.90;;;;;;5075822;28;20051;-69
2022/01/02 10:54:58;;;;;;;25.10;10.77;;;10.70;99.90;;;;;;5074887;28;20076;-67
2022/01/02 10:57:24;;;;;;;25.15;10.45;;;10.90;99.90;;;;;;5076020;28;20127;-70
2022/01/02 10:59:55;;;;;;;32.28;10.55;;;11.10;99.90;;;;;;5108842;28;20094;-71
2022/01/02 11:02:23;;;;;;;21.73;8.63;;;11.10;99.90;;;;;;5075787;28;20132;-70
2022/01/02 11:05:01;;;;;;;22.70;8.93;;;11.90;99.90;;;;;;5075535;28;20055;-66
2022/01/02 11:07:31;;;;;;;23.75;7.72;;;11.10;99.90;;;;;;5075385;28;20043;-70
2022/01/02 11:09:57;;;;;;;20.70;7.03;;;12.10;99.90;;;;;;5075366;28;20134;-69
2022/01/02 11:12:23;;;;;;;25.77;7.50;;;11.40;99.90;;;;;;5075400;28;20481;-69
2022/01/02 11:14:50;;;;;;;23.25;7.88;;;11.90;99.90;;;;;;5075160;28;20456;-69
2022/01/02 11:17:17;;;;;;;21.48;7.15;;;11.30;99.90;;;;;;5075727;28;20496;-67
2022/01/02 11:19:43;;;;;;;23.27;6.78;;;11.60;99.90;;;;;;5074165;28;20060;-69
2022/01/02 11:22:19;;;;;;;26.42;7.18;;;11.70;99.90;;;;;;5075318;28;20052;-69
2022/01/02 11:24:52;;;;;;;35.40;7.53;;;11.60;99.90;;;;;;5074514;28;20049;-73
2022/01/02 11:27:35;;;;;;;28.35;6.32;;;11.40;99.90;;;;;;5075836;28;20132;-68
2022/01/02 11:30:34;;;;;;;29.27;6.22;;;11.50;99.90;;;;;;5075190;28;20055;-74
2022/01/02 11:33:14;;;;;;;20.40;6.20;;;11.30;99.90;;;;;;5076203;28;20051;-67
2022/01/02 11:35:43;;;;;;;35.15;5.97;;;11.50;99.90;;;;;;5074552;28;20079;-78
2022/01/02 11:38:09;;;;;;;28.08;6.53;;;11.30;99.90;;;;;;5075175;28;20396;-75
2022/01/02 11:40:49;;;;;;;23.15;6.03;;;11.50;99.90;;;;;;5074095;28;20082;-76
2022/01/02 11:43:49;;;;;;;30.52;6.63;;;12.60;99.90;;;;;;5075116;28;20048;-75
2022/01/02 11:46:38;;;;;;;20.48;5.63;;;11.50;99.90;;;;;;5075166;28;20043;-71
2022/01/02 11:49:04;;;;;;;25.58;5.70;;;11.80;99.90;;;;;;5067938;28;20079;-72
2022/01/02 11:51:48;;;;;;;30.73;5.60;;;12.50;99.90;;;;;;5073756;28;20044;-72
2022/01/02 11:57:03;;;;;;;21.02;5.20;;;11.40;99.90;;;;;;5074760;28;20052;-71
2022/01/02 11:59:42;;;;;;;27.77;6.00;;;11.50;99.90;;;;;;5075404;28;20079;-68
2022/01/02 12:02:26;;;;;;;24.42;5.32;;;11.60;99.90;;;;;;5073908;28;20068;-75
2022/01/02 12:07:42;;;;;;;32.33;5.93;;;11.60;99.90;;;;;;5073204;28;20049;-71
2022/01/02 12:10:16;;;;;;;26.65;5.65;;;11.40;99.90;;;;;;5074243;28;20048;-73
2022/01/02 12:13:05;;;;;;;21.17;5.00;;;11.50;99.90;;;;;;5056603;28;20041;-79
2022/01/02 12:15:31;;;;;;;23.50;5.18;;;12.80;99.90;;;;;;5073727;28;20492;-79
2022/01/02 12:18:07;;;;;;;26.63;5.63;;;11.40;99.90;;;;;;5073447;28;20059;-69
2022/01/02 12:23:35;;;;;;;27.20;5.35;;;11.40;99.90;;;;;;5074330;28;20044;-72
2022/01/02 12:26:08;;;;;;;19.55;4.50;;;11.60;99.90;;;;;;5056396;28;20109;-73
2022/01/02 12:28:37;;;;;;;24.25;5.20;;;11.50;99.90;;;;;;5075117;28;20041;-78
2022/01/02 12:31:04;;;;;;;20.75;4.05;;;12.70;99.90;;;;;;5073139;28;20048;-77
2022/01/02 12:33:30;;;;;;;23.42;4.35;;;11.60;99.90;;;;;;5074210;28;20057;-72
2022/01/02 12:35:57;;;;;;;23.67;4.78;;;11.60;99.90;;;;;;5072793;28;20047;-70
2022/01/02 12:38:23;;;;;;;16.33;3.65;;;11.30;99.90;;;;;;5073609;28;20060;-69
2022/01/02 12:40:53;;;;;;;21.58;4.50;;;11.40;99.90;;;;;;5073729;28;20392;-74
2022/01/02 12:43:25;;;;;;;24.38;4.07;;;11.40;99.90;;;;;;5074050;28;20044;-74
2022/01/02 12:45:54;;;;;;;20.05;4.30;;;11.60;99.90;;;;;;5073989;28;20063;-75
2022/01/02 12:48:35;;;;;;;21.35;3.65;;;11.30;99.90;;;;;;5074427;28;20385;-71
2022/01/02 12:51:12;;;;;;;23.67;3.42;;;11.50;99.90;;;;;;5073034;28;20052;-76
2022/01/02 12:53:38;;;;;;;;;;;11.40;99.90;;;;;;5074115;28;20431;-77
2022/01/02 12:56:04;;;;;;;18.67;2.85;;;11.90;99.90;;;;;;5072518;28;19920;-78
2022/01/02 12:58:34;;;;;;;15.82;3.22;;;11.70;99.90;;;;;;5073784;28;20443;-72
2022/01/02 13:01:05;;;;;;;17.83;3.42;;;12.00;99.90;;;;;;5074301;28;20098;-69
2022/01/02 13:03:31;;;;;;;15.38;2.97;;;11.70;99.90;;;;;;5074550;28;20149;-75